Flight Track Log - Related Links

Times and Time Zones

All times are in EDT time to prevent confusion due to time zone crossing. See the SKW6345 flight status page for this flight to view local times or setup timezone preferences in your user account.

Time Position Orientation Groundspeed Altitude Reporting Facility
EDT Latitude Longitude Course Direction KTS MPH feet Rate Location/Type
Tue 08:14:38 PM 33.9500 -118.4667 285° West 159 183 1,900  Level Southern California TRACON
Tue 08:15:36 PM 33.9625 -118.5211 285° West 178 205 3,500 1,700 Climbing Los Angeles Center
Tue 08:16:38 PM 33.9747 -118.5811 284° West 181 208 5,300 1,694 Climbing Los Angeles Center
Tue 08:17:40 PM 33.9869 -118.6433 283° West 180 207 7,000 823 Climbing Los Angeles Center
Tue 08:18:42 PM 34.0417 -118.6572 348° North 240 276 7,000 97 Level Los Angeles Center
Tue 08:19:44 PM 34.1086 -118.6361 15° North 249 287 7,200 1,065 Climbing Los Angeles Center
Tue 08:20:46 PM 34.1708 -118.6342 North 234 269 9,200 1,694 Climbing Los Angeles Center
Tue 08:21:48 PM 34.2244 -118.6556 342° North 209 241 10,700 919 Climbing Los Angeles Center
Tue 08:22:50 PM 34.2831 -118.6761 344° North 213 245 11,100 677 Climbing Los Angeles Center
Tue 08:23:52 PM 34.3647 -118.7039 344° North 245 282 12,100 484 Climbing Los Angeles Center
Tue 08:24:54 PM 34.4336 -118.7275 344° North 253 291 12,100  Level Los Angeles Center
Tue 08:25:56 PM 34.5022 -118.7494 345° North 254 292 12,100  Level Los Angeles Center
Tue 08:26:58 PM 34.5706 -118.7731 344° North 254 292 12,100  Level Los Angeles Center
Tue 08:28:00 PM 34.6381 -118.7986 343° North 254 292 12,100 823 Level Los Angeles Center
Tue 08:29:02 PM 34.7025 -118.8250 341° North 251 289 13,800 1,645 Climbing Los Angeles Center
Tue 08:30:04 PM 34.7761 -118.8375 352° North 225 259 15,500 1,161 Climbing Los Angeles Center
Tue 08:31:06 PM 34.8353 -118.8481 352° North 220 253 16,200 242 Climbing Los Angeles Center
Tue 08:32:08 PM 34.9061 -118.8542 356° North 248 285 16,000 -97 Descending Los Angeles Center
Tue 08:33:10 PM 34.9839 -118.8664 353° North 275 316 16,000 387 Level Los Angeles Center
Tue 08:34:12 PM 35.0636 -118.8800 352° North 288 331 16,800 1,200 Climbing Los Angeles Center
Tue 08:35:15 PM 35.1453 -118.8944 352° North 251 289 18,500 1,248 Climbing Los Angeles Center
Tue 08:36:17 PM 35.2108 -118.9058 352° North 242 278 19,400 726 Climbing Los Angeles Center
Tue 08:37:19 PM 35.2792 -118.9172 352° North 242 278 20,000 290 Climbing Los Angeles Center
Tue 08:38:21 PM 35.3525 -118.9281 353° North 258 297 20,000  Level Los Angeles Center
Tue 08:39:23 PM 35.4294 -118.9408 352° North 273 314 20,000  Level Los Angeles Center
Tue 08:40:25 PM 35.5069 -118.9556 351° North 277 319 20,000  Level Los Angeles Center
Tue 08:41:27 PM 35.6008 -118.9708 352° North 281 323 20,000  Level Los Angeles Center
Tue 08:42:29 PM 35.6789 -118.9839 352° North 282 325 20,000 -97 Level Los Angeles Center
Tue 08:43:31 PM 35.7569 -118.9969 352° North 283 326 19,800 -629 Descending Los Angeles Center
Tue 08:44:33 PM 35.8406 -119.0117 352° North 298 343 18,700 -1,016 Descending Los Angeles Center
Tue 08:45:35 PM 35.9286 -119.0275 352° North 314 361 17,700 -1,161 Descending Los Angeles Center
Tue 08:46:37 PM 36.0303 -119.0778 338° Northwest 328 377 16,300 -1,306 Descending Los Angeles Center
Tue 08:47:39 PM 36.1150 -119.1186 339° North 328 377 15,000 -1,161 Descending Los Angeles Center
Tue 08:48:41 PM 36.2014 -119.1603 339° North 330 380 13,900 -968 Descending Los Angeles Center
Tue 08:49:43 PM 36.2853 -119.1997 339° North 328 377 13,000 -968 Descending Los Angeles Center
Tue 08:50:45 PM 36.3667 -119.2392 339° North 321 369 11,900 -1,065 Descending Los Angeles Center
Tue 08:51:47 PM 36.4481 -119.2778 339° North 321 369 10,800 -1,210 Descending Los Angeles Center
Tue 08:52:49 PM 36.5425 -119.3242 338° Northwest 313 360 9,400 -1,403 Descending Los Angeles Center
Tue 08:53:51 PM 36.5917 -119.3994 309° West 302 348 7,900 -1,839 Descending Los Angeles Center
Tue 08:54:53 PM 36.6397 -119.4772 308° West 289 333 5,600 -2,120 Descending Los Angeles Center
Tue 08:56:04 PM 36.6892 -119.5642 305° West 258 297 3,200 -1,714 Descending Oakland Center
Tue 08:57:06 PM 36.7275 -119.6317 305° West 227 261 1,800 -1,024 Descending Oakland Center
Tue 08:58:07 PM 36.7514 -119.6717 307° West 156 180 1,100 -689 Descending Oakland Center
Tue 08:59:08 PM 36.7703 -119.7061 304° West 126 145 400 -689 Descending Oakland Center

Login

Don't have an account? Register now (free) for customized features, flight alerts, and more!